Otagawa — JD3046 — position and weather

sailwx.info

Track history (hours):
 
Tides and Currents Weather Stations Pressure Air Temp Water Temp Dewpoint Dewpoint Depression Visibility Wind Speed Wind Dir Waves Ship Positions

Otagawa

Last reported at 2017-Jan-17 02:24 UTC. Time now 2017-Jan-17 17:20 UTC.
Position N 35°04' E 139°44'.

Length 70 m; draft 4 m.

Type: Ship. MMSI: 431001328.

Date/timePositionNaut miles runAvg speedWind from/ knotsBaromVisibWave heightAir tempDewpointWater temp
2017-Jan-17 02:24N 35°04' E 139°44'911.0
2017-Jan-17 01:33N 35°13' E 139°46'1111.0
2017-Jan-17 00:33N 35°23' E 139°42'5 4.5
2017-Jan-16 23:33N 35°28' E 139°42'0 0.0
2017-Jan-16 22:33N 35°28' E 139°42'2 1.7
2017-Jan-16 21:32N 35°26' E 139°43'0 0.0
2017-Jan-16 20:32N 35°26' E 139°43'0 0.0
2017-Jan-16 19:32N 35°26' E 139°43'0 0.0
2017-Jan-16 18:32N 35°26' E 139°43'0 0.1
2017-Jan-16 17:32N 35°26' E 139°43'0 0.0
2017-Jan-16 16:32N 35°26' E 139°43'0 0.0
2017-Jan-16 15:32N 35°26' E 139°43'0 0.1
2017-Jan-16 14:34N 35°26' E 139°43'3 2.6
2017-Jan-16 13:33N 35°24' E 139°41'0 0.0
2017-Jan-16 12:33N 35°24' E 139°41'0 0.0
2017-Jan-16 11:33N 35°24' E 139°41'1 1.3
2017-Jan-16 10:33N 35°23' E 139°40'0 0.0
2017-Jan-16 09:28N 35°23' E 139°40'1 0.9
2017-Jan-16 08:33N 35°23' E 139°41'5 5.5
2017-Jan-16 07:33N 35°29' E 139°39'0 0.0
2017-Jan-16 06:33N 35°29' E 139°39'0 0.0
2017-Jan-16 05:33N 35°29' E 139°39'0 0.0
2017-Jan-16 04:33N 35°29' E 139°39'0 0.0
2017-Jan-16 03:33N 35°29' E 139°39'8 7.6
2017-Jan-16 02:33N 35°22' E 139°43'10 9.8
2017-Jan-16 01:33N 35°12' E 139°47'  
2017-Jan-11 03:27N 35°03' E 139°45'1010.6
2017-Jan-11 02:32N 35°13' E 139°46'1010.3
2017-Jan-11 01:34N 35°22' E 139°42'2 2.3
2017-Jan-11 00:33N 35°24' E 139°41'0 0.0
2017-Jan-10 23:33N 35°24' E 139°41'1 1.0
2017-Jan-10 22:33N 35°23' E 139°40'0 0.0
2017-Jan-10 21:33N 35°23' E 139°40'0 0.0
2017-Jan-10 20:33N 35°23' E 139°40'0 0.0
2017-Jan-10 19:33N 35°23' E 139°40'0 0.0
2017-Jan-10 18:33N 35°23' E 139°40'0 0.1
2017-Jan-10 17:33N 35°23' E 139°40'0 0.0
2017-Jan-10 16:33N 35°23' E 139°40'0 0.0
2017-Jan-10 15:33N 35°23' E 139°40'0 0.1
2017-Jan-10 14:33N 35°23' E 139°40'0 0.1
2017-Jan-10 13:33N 35°23' E 139°40'0 0.0
2017-Jan-10 12:33N 35°23' E 139°40'0 0.0
2017-Jan-10 11:33N 35°23' E 139°40'0 0.1
2017-Jan-10 10:33N 35°23' E 139°40'0 0.0
2017-Jan-10 09:33N 35°23' E 139°40'3 3.0
2017-Jan-10 08:33N 35°25' E 139°42'2 2.3
2017-Jan-10 07:33N 35°28' E 139°42'0 0.0
2017-Jan-10 06:33N 35°28' E 139°42'0 0.0
2017-Jan-10 05:33N 35°28' E 139°42'0 0.0
2017-Jan-10 04:33N 35°28' E 139°42'0 0.0
2017-Jan-10 03:33N 35°28' E 139°42'0 0.0
2017-Jan-10 02:33N 35°28' E 139°42'6 5.8
2017-Jan-10 01:33N 35°23' E 139°45'10 9.7
2017-Jan-10 00:33N 35°13' E 139°47'9 8.6
2017-Jan-09 23:33N 35°05' E 139°45'  
Track history (hours):
 
Tides and Currents Weather Stations Pressure Air Temp Water Temp Dewpoint Dewpoint Depression Visibility Wind Speed Wind Dir Waves Ship Positions

Otagawa

Last reported at 2017-Jan-17 02:24 UTC. Time now 2017-Jan-17 17:20 UTC.
Position N 35°04' E 139°44'.

Length 70 m; draft 4 m.

Type: Ship. MMSI: 431001328.

Date/timePositionNaut miles runAvg speedWind from/ knotsBaromVisibWave heightAir tempDewpointWater temp
2017-Jan-17 02:24N 35°04' E 139°44'911.0
2017-Jan-17 01:33N 35°13' E 139°46'1111.0
2017-Jan-17 00:33N 35°23' E 139°42'5 4.5
2017-Jan-16 23:33N 35°28' E 139°42'0 0.0
2017-Jan-16 22:33N 35°28' E 139°42'2 1.7
2017-Jan-16 21:32N 35°26' E 139°43'0 0.0
2017-Jan-16 20:32N 35°26' E 139°43'0 0.0
2017-Jan-16 19:32N 35°26' E 139°43'0 0.0
2017-Jan-16 18:32N 35°26' E 139°43'0 0.1
2017-Jan-16 17:32N 35°26' E 139°43'0 0.0
2017-Jan-16 16:32N 35°26' E 139°43'0 0.0
2017-Jan-16 15:32N 35°26' E 139°43'0 0.1
2017-Jan-16 14:34N 35°26' E 139°43'3 2.6
2017-Jan-16 13:33N 35°24' E 139°41'0 0.0
2017-Jan-16 12:33N 35°24' E 139°41'0 0.0
2017-Jan-16 11:33N 35°24' E 139°41'1 1.3
2017-Jan-16 10:33N 35°23' E 139°40'0 0.0
2017-Jan-16 09:28N 35°23' E 139°40'1 0.9
2017-Jan-16 08:33N 35°23' E 139°41'5 5.5
2017-Jan-16 07:33N 35°29' E 139°39'0 0.0
2017-Jan-16 06:33N 35°29' E 139°39'0 0.0
2017-Jan-16 05:33N 35°29' E 139°39'0 0.0
2017-Jan-16 04:33N 35°29' E 139°39'0 0.0
2017-Jan-16 03:33N 35°29' E 139°39'8 7.6
2017-Jan-16 02:33N 35°22' E 139°43'10 9.8
2017-Jan-16 01:33N 35°12' E 139°47'  
2017-Jan-11 03:27N 35°03' E 139°45'1010.6
2017-Jan-11 02:32N 35°13' E 139°46'1010.3
2017-Jan-11 01:34N 35°22' E 139°42'2 2.3
2017-Jan-11 00:33N 35°24' E 139°41'0 0.0
2017-Jan-10 23:33N 35°24' E 139°41'1 1.0
2017-Jan-10 22:33N 35°23' E 139°40'0 0.0
2017-Jan-10 21:33N 35°23' E 139°40'0 0.0
2017-Jan-10 20:33N 35°23' E 139°40'0 0.0
2017-Jan-10 19:33N 35°23' E 139°40'0 0.0
2017-Jan-10 18:33N 35°23' E 139°40'0 0.1
2017-Jan-10 17:33N 35°23' E 139°40'0 0.0
2017-Jan-10 16:33N 35°23' E 139°40'0 0.0
2017-Jan-10 15:33N 35°23' E 139°40'0 0.1
2017-Jan-10 14:33N 35°23' E 139°40'0 0.1
2017-Jan-10 13:33N 35°23' E 139°40'0 0.0
2017-Jan-10 12:33N 35°23' E 139°40'0 0.0
2017-Jan-10 11:33N 35°23' E 139°40'0 0.1
2017-Jan-10 10:33N 35°23' E 139°40'0 0.0
2017-Jan-10 09:33N 35°23' E 139°40'3 3.0
2017-Jan-10 08:33N 35°25' E 139°42'2 2.3
2017-Jan-10 07:33N 35°28' E 139°42'0 0.0
2017-Jan-10 06:33N 35°28' E 139°42'0 0.0
2017-Jan-10 05:33N 35°28' E 139°42'0 0.0
2017-Jan-10 04:33N 35°28' E 139°42'0 0.0
2017-Jan-10 03:33N 35°28' E 139°42'0 0.0
2017-Jan-10 02:33N 35°28' E 139°42'6 5.8
2017-Jan-10 01:33N 35°23' E 139°45'10 9.7
2017-Jan-10 00:33N 35°13' E 139°47'9 8.6
2017-Jan-09 23:33N 35°05' E 139°45'  

Dump ship's entire track history